createdAt,value
2018-09-22T02:56:44.637Z,5.20
2018-09-22T02:59:20.123Z,6.50
2018-09-22T03:01:55.616Z,7.60
2018-09-22T03:04:31.184Z,7.70
2018-09-22T03:07:06.501Z,5.42
2018-09-22T03:09:42.051Z,5.22
2018-09-22T03:12:17.492Z,6.28
2018-09-22T03:14:53.044Z,6.00
2018-09-22T03:17:28.280Z,7.85
2018-09-22T03:20:04.084Z,5.80
2018-09-22T03:22:39.505Z,2.55
2018-09-22T03:25:14.947Z,5.05
2018-09-22T03:27:50.407Z,3.75
2018-09-22T03:30:25.856Z,12.90
2018-09-22T03:33:01.262Z,9.75
2018-09-22T03:35:36.838Z,4.70
2018-09-22T03:38:12.265Z,4.30
2018-09-22T03:40:47.927Z,8.65
2018-09-22T03:43:23.179Z,6.15
2018-09-22T03:45:58.714Z,4.40
2018-09-22T03:48:34.068Z,4.45
2018-09-22T03:51:09.600Z,8.38
2018-09-22T03:53:45.106Z,2.60
2018-09-22T03:56:20.798Z,4.67
2018-09-22T03:58:56.284Z,4.42
2018-09-22T04:01:31.639Z,3.77
2018-09-22T04:04:07.169Z,7.25
2018-09-22T04:06:42.732Z,3.45
2018-09-22T04:09:18.256Z,6.87
2018-09-22T04:11:53.692Z,4.92
2018-09-22T04:14:29.145Z,3.00
2018-09-22T04:17:04.669Z,4.85
2018-09-22T04:19:40.128Z,5.80
2018-09-22T04:22:15.690Z,3.47
2018-09-22T04:24:51.244Z,5.22
2018-09-22T04:27:26.682Z,4.30
2018-09-22T04:30:02.011Z,5.60
2018-09-22T04:32:37.653Z,3.95
2018-09-22T04:35:13.161Z,3.10
2018-09-22T04:37:48.652Z,3.37
2018-09-22T04:40:24.305Z,5.80
2018-09-22T04:42:59.853Z,10.58
2018-09-22T04:45:35.104Z,3.35
2018-09-22T04:48:10.624Z,10.88
2018-09-22T04:50:46.113Z,6.90
2018-09-22T04:53:21.513Z,8.00
2018-09-22T04:55:56.942Z,4.00
2018-09-22T04:58:32.412Z,9.55
2018-09-22T05:01:07.893Z,9.80
2018-09-22T05:03:43.498Z,4.60
2018-09-22T05:06:19.013Z,8.93
2018-09-22T05:08:54.592Z,4.17
2018-09-22T05:11:30.084Z,6.08
2018-09-22T05:14:06.413Z,5.85
2018-09-22T05:16:41.736Z,9.38
2018-09-22T05:19:17.331Z,6.85
2018-09-22T05:21:52.773Z,3.37
2018-09-22T05:24:28.273Z,5.58
2018-09-22T05:27:03.819Z,3.90
2018-09-22T05:29:39.493Z,7.58
2018-09-22T05:32:14.708Z,2.90
2018-09-22T05:34:50.160Z,5.35
2018-09-22T06:13:34.137Z,4.92
2018-09-22T06:16:09.810Z,4.60
2018-09-22T06:18:45.276Z,3.92
2018-09-22T06:21:20.882Z,3.58
2018-09-22T06:31:40.447Z,4.90
2018-09-22T07:38:52.801Z,10.20
2018-09-22T07:41:28.232Z,5.00
2018-09-22T07:44:03.906Z,8.03
2018-09-22T07:46:39.172Z,8.63
2018-09-22T07:49:21.236Z,7.60
2018-09-22T07:51:56.702Z,4.45
2018-09-22T07:54:32.159Z,6.80
2018-09-22T07:57:07.445Z,7.37
2018-09-22T07:59:42.994Z,9.73
2018-09-22T08:15:11.797Z,9.30
2018-09-22T08:25:31.230Z,10.50
2018-09-22T08:30:41.373Z,12.90
2018-09-22T08:33:16.576Z,6.20
2018-09-22T08:35:51.953Z,6.20
2018-09-22T08:38:27.280Z,13.60
2018-09-22T10:50:02.469Z,7.10
2018-09-22T11:18:26.868Z,4.25
2018-09-22T11:44:18.732Z,7.30
2018-09-22T11:54:40.161Z,5.75
2018-09-22T11:57:22.021Z,7.60
2018-09-22T13:22:30.809Z,2.80
2018-09-22T13:25:06.233Z,8.90
2018-09-22T13:27:41.550Z,11.22
2018-09-22T13:30:16.947Z,28.15
2018-09-22T13:32:52.459Z,9.43
2018-09-22T13:35:27.909Z,4.17
2018-09-22T13:38:03.158Z,7.92
2018-09-22T13:40:38.896Z,6.25
2018-09-22T13:43:14.209Z,2.95
2018-09-22T13:45:49.638Z,11.08
2018-09-22T13:48:25.120Z,6.60
2018-09-22T13:51:00.515Z,6.75
2018-09-22T13:53:36.002Z,3.70
2018-09-22T13:56:11.405Z,4.30
2018-09-22T13:58:46.737Z,6.03
2018-09-22T14:01:22.125Z,3.58
2018-09-22T14:03:57.333Z,8.65
2018-09-22T14:06:32.869Z,11.38
2018-09-22T14:09:11.453Z,11.15
2018-09-22T14:11:46.892Z,4.75
2018-09-22T14:14:22.181Z,5.45
2018-09-22T14:16:57.751Z,7.70
2018-09-22T14:19:33.212Z,15.63
2018-09-22T14:22:08.776Z,4.25
2018-09-22T14:24:44.049Z,9.83
2018-09-22T14:27:19.644Z,9.15
2018-09-22T14:29:55.167Z,8.83
2018-09-22T14:32:30.756Z,6.28
2018-09-22T14:35:06.254Z,7.40
2018-09-22T14:37:41.652Z,10.70
2018-09-22T14:40:16.937Z,9.73
2018-09-22T14:42:52.426Z,12.30
2018-09-22T14:45:27.792Z,4.90
2018-09-22T14:48:03.285Z,4.62
2018-09-22T14:50:38.753Z,7.95
2018-09-22T14:53:14.158Z,10.65
2018-09-22T14:55:49.642Z,10.68
2018-09-22T14:58:25.194Z,9.23
2018-09-22T15:01:00.495Z,11.50
2018-09-22T15:03:35.830Z,7.58
2018-09-22T15:06:11.293Z,5.17
2018-09-22T15:08:46.788Z,6.85
2018-09-22T15:11:22.262Z,8.48
2018-09-22T15:13:57.646Z,6.42
2018-09-22T15:16:32.869Z,9.20
2018-09-22T15:19:08.303Z,8.73
2018-09-22T15:21:43.708Z,8.63
2018-09-22T15:26:53.874Z,12.03
2018-09-22T15:32:04.112Z,7.57
2018-09-22T15:34:39.529Z,11.40
2018-09-22T15:37:15.025Z,10.10
2018-09-22T15:39:50.595Z,7.60
2018-09-22T15:42:26.181Z,9.20
2018-09-22T15:45:01.716Z,11.63
2018-09-22T15:47:37.240Z,12.00
2018-09-22T15:50:12.793Z,7.85
2018-09-22T15:52:48.137Z,15.10
2018-09-22T15:55:23.568Z,6.10
2018-09-22T15:57:58.972Z,4.70
2018-09-22T16:00:34.594Z,10.05
2018-09-22T16:03:10.129Z,11.40
2018-09-22T16:05:45.967Z,5.60
2018-09-22T16:10:56.543Z,7.70
2018-09-22T16:13:32.071Z,5.50
2018-09-22T16:16:07.854Z,6.40
2018-09-22T16:18:43.110Z,8.90
2018-09-22T16:23:53.373Z,6.75
2018-09-22T16:26:28.778Z,12.30
2018-09-22T16:29:04.276Z,12.00
2018-09-22T16:31:39.901Z,5.50
2018-09-22T16:34:15.420Z,11.80
2018-09-22T16:36:50.804Z,6.30
2018-09-22T16:39:26.495Z,8.70
2018-09-22T16:42:02.042Z,7.30
2018-09-22T16:44:37.544Z,9.90
2018-09-22T16:47:13.350Z,7.10
2018-09-22T16:49:48.587Z,6.40
2018-09-22T16:52:24.181Z,11.40
2018-09-22T16:54:59.674Z,7.05
2018-09-22T16:57:35.146Z,17.50
2018-09-22T17:00:10.661Z,10.10
2018-09-22T17:02:46.235Z,7.90
2018-09-22T17:07:56.905Z,10.75
2018-09-22T17:13:07.588Z,7.30
2018-09-22T17:15:43.000Z,8.30
2018-09-22T17:18:18.357Z,9.10
2018-09-22T17:20:53.705Z,9.30
2018-09-22T17:23:29.121Z,6.70
2018-09-22T17:26:04.621Z,5.60
2018-09-22T17:28:40.155Z,13.37
2018-09-22T17:31:15.461Z,7.70
2018-09-22T17:33:50.930Z,7.08
2018-09-22T17:36:26.381Z,11.28
2018-09-22T17:39:02.055Z,9.23
2018-09-22T17:41:37.746Z,7.08
2018-09-22T17:44:13.332Z,18.37
2018-09-22T17:46:48.813Z,7.47
2018-09-22T17:49:24.302Z,13.10
2018-09-22T17:51:59.709Z,8.35
2018-09-22T17:54:35.500Z,11.57
2018-09-22T17:57:10.805Z,10.78
2018-09-22T17:59:46.276Z,7.15
2018-09-22T18:02:21.542Z,10.20
2018-09-22T18:04:57.050Z,10.48
2018-09-22T18:07:32.382Z,10.68
2018-09-22T18:10:07.917Z,4.53
2018-09-22T18:12:43.412Z,7.62
2018-09-22T18:15:18.842Z,10.40
2018-09-22T18:17:54.275Z,10.15
2018-09-22T18:20:29.905Z,3.83
2018-09-22T18:23:05.401Z,6.78
2018-09-22T18:25:40.889Z,7.40
2018-09-22T18:28:16.247Z,6.00
2018-09-22T18:30:51.823Z,8.83
2018-09-22T18:33:27.446Z,7.17
2018-09-22T18:36:03.181Z,5.95
2018-09-22T18:38:38.559Z,4.30
2018-09-22T18:41:14.110Z,6.78
2018-09-22T18:43:49.581Z,9.55
2018-09-22T18:46:25.060Z,10.38
2018-09-22T18:49:00.600Z,9.25
2018-09-22T18:51:36.099Z,11.03
2018-09-22T18:54:11.552Z,6.87
2018-09-22T18:56:47.041Z,8.40
2018-09-22T18:59:22.340Z,10.63
2018-09-22T19:01:57.717Z,12.90
2018-09-22T19:04:32.980Z,4.55
2018-09-22T19:07:08.589Z,9.75
2018-09-22T19:09:44.140Z,21.17
2018-09-22T19:12:19.510Z,10.00
2018-09-22T19:15:01.355Z,8.28
2018-09-22T19:17:54.989Z,12.43
2018-09-22T19:20:37.845Z,15.18
2018-09-22T19:23:16.884Z,14.53
2018-09-22T19:25:55.923Z,10.63
2018-09-22T19:28:41.753Z,12.50
2018-09-22T19:31:22.779Z,7.97
2018-09-22T19:34:04.502Z,9.35
2018-09-22T19:36:42.878Z,10.15
2018-09-22T19:39:25.565Z,4.78
2018-09-22T19:42:06.151Z,5.97
2018-09-22T19:44:45.443Z,11.35
2018-09-22T19:47:27.422Z,4.80
2018-09-22T19:50:05.541Z,10.48
2018-09-22T19:52:48.623Z,8.68
2018-09-22T19:55:24.145Z,9.53
2018-09-22T19:57:59.820Z,6.42
2018-09-22T20:00:35.257Z,7.15
2018-09-22T20:03:10.759Z,5.67
2018-09-22T20:05:46.360Z,7.00
2018-09-22T20:08:22.055Z,4.50
2018-09-22T20:10:57.385Z,28.30
2018-09-22T20:13:32.925Z,50.75
2018-09-22T20:16:08.704Z,10.38
2018-09-22T20:18:44.150Z,5.97
2018-09-22T20:21:19.637Z,9.30
2018-09-22T20:23:55.188Z,8.78
2018-09-22T20:26:30.616Z,5.70
2018-09-22T20:29:06.185Z,11.63
2018-09-22T20:31:41.388Z,13.35
2018-09-22T20:34:17.067Z,8.30
2018-09-22T20:36:52.361Z,9.90
2018-09-22T20:39:28.179Z,11.00
2018-09-22T20:42:03.759Z,10.43
2018-09-22T20:44:39.325Z,10.72
2018-09-22T20:47:14.752Z,10.70
2018-09-22T20:49:50.430Z,16.00
2018-09-22T20:52:25.826Z,11.08
2018-09-22T20:55:01.336Z,14.00
2018-09-22T20:57:36.910Z,18.67
2018-09-22T21:00:12.539Z,18.35
2018-09-22T21:02:48.048Z,16.40
2018-09-22T21:05:23.482Z,17.40
2018-09-22T21:07:58.737Z,21.15
2018-09-22T21:10:34.258Z,16.00
2018-09-22T21:13:09.637Z,12.98
2018-09-22T21:15:45.213Z,12.28
2018-09-22T21:18:20.733Z,14.28
2018-09-22T21:20:56.333Z,14.33
2018-09-22T21:23:31.889Z,12.18
2018-09-22T21:26:07.655Z,16.57
2018-09-22T21:28:43.185Z,15.58
2018-09-22T21:31:18.586Z,14.25
2018-09-22T21:33:53.806Z,18.35
2018-09-22T21:36:29.347Z,14.95
2018-09-22T21:39:07.534Z,18.00
2018-09-22T21:41:42.958Z,14.33
2018-09-22T21:44:18.445Z,15.30
2018-09-22T21:46:54.305Z,17.92
2018-09-22T21:49:29.705Z,15.48
2018-09-22T21:52:05.164Z,20.88
2018-09-22T21:54:40.560Z,18.87
2018-09-22T21:57:16.303Z,18.45
2018-09-22T21:59:51.911Z,25.17
2018-09-22T22:02:27.506Z,21.40
2018-09-22T22:05:02.860Z,14.25
2018-09-22T22:07:38.313Z,16.52
2018-09-22T22:10:13.529Z,17.67
2018-09-22T22:12:48.911Z,15.65
2018-09-22T22:15:24.414Z,21.12
2018-09-22T22:18:00.025Z,25.65
2018-09-22T22:20:35.659Z,18.98
2018-09-22T22:23:11.201Z,16.42
2018-09-22T22:25:46.453Z,16.93
2018-09-22T22:28:22.039Z,16.05
2018-09-22T22:30:57.252Z,19.52
2018-09-22T22:33:33.228Z,17.20
2018-09-22T22:36:08.693Z,15.58
2018-09-22T22:38:44.329Z,14.58
2018-09-22T22:41:19.701Z,16.37
2018-09-22T22:43:55.171Z,17.62
2018-09-22T22:46:30.647Z,18.70
2018-09-22T22:49:06.361Z,18.48
2018-09-22T22:51:41.852Z,16.17
2018-09-22T22:54:17.454Z,21.07
2018-09-22T22:56:52.922Z,19.62
2018-09-22T22:59:28.493Z,18.70
2018-09-22T23:02:03.889Z,17.37
2018-09-22T23:04:39.356Z,17.25
2018-09-22T23:07:14.798Z,23.55
2018-09-22T23:09:50.248Z,25.15
2018-09-22T23:12:25.748Z,20.80
2018-09-22T23:15:01.378Z,18.82
2018-09-22T23:17:36.854Z,22.02
2018-09-22T23:20:12.425Z,18.95
2018-09-22T23:22:48.158Z,21.55
2018-09-22T23:25:24.214Z,21.73
2018-09-22T23:27:59.800Z,21.15
2018-09-22T23:30:35.221Z,25.57
2018-09-22T23:33:10.554Z,22.42
2018-09-22T23:35:46.093Z,20.43
2018-09-22T23:38:21.542Z,14.68
2018-09-22T23:40:57.166Z,17.23
2018-09-22T23:43:32.637Z,20.55
2018-09-22T23:46:08.230Z,17.50
2018-09-22T23:48:43.644Z,21.57
2018-09-22T23:51:19.152Z,21.95
2018-09-22T23:53:54.557Z,20.55
2018-09-22T23:56:30.695Z,18.70
2018-09-22T23:59:06.345Z,16.82
